sensor_id;sensor_type;location;lat;lon;timestamp;temperature;humidity
27567;DHT22;15006;48.584;9.186;2023-04-26T00:02:23;3.90;99.90
27567;DHT22;15006;48.584;9.186;2023-04-26T00:04:52;3.90;99.90
27567;DHT22;15006;48.584;9.186;2023-04-26T00:07:26;3.90;99.90
27567;DHT22;15006;48.584;9.186;2023-04-26T00:09:53;3.90;99.90
27567;DHT22;15006;48.584;9.186;2023-04-26T00:12:19;3.90;99.90
27567;DHT22;15006;48.584;9.186;2023-04-26T00:14:45;3.90;99.90
27567;DHT22;15006;48.584;9.186;2023-04-26T00:17:11;3.90;99.90
27567;DHT22;15006;48.584;9.186;2023-04-26T00:19:37;3.90;99.90
27567;DHT22;15006;48.584;9.186;2023-04-26T00:22:04;3.80;99.90
27567;DHT22;15006;48.584;9.186;2023-04-26T00:24:30;3.80;99.90
27567;DHT22;15006;48.584;9.186;2023-04-26T00:26:57;3.80;99.90
27567;DHT22;15006;48.584;9.186;2023-04-26T00:29:23;3.80;99.90
27567;DHT22;15006;48.584;9.186;2023-04-26T00:31:49;3.70;99.90
27567;DHT22;15006;48.584;9.186;2023-04-26T00:34:15;3.70;99.90
27567;DHT22;15006;48.584;9.186;2023-04-26T00:36:41;3.70;99.90
27567;DHT22;15006;48.584;9.186;2023-04-26T00:39:07;3.70;99.90
27567;DHT22;15006;48.584;9.186;2023-04-26T00:41:34;3.70;99.90
27567;DHT22;15006;48.584;9.186;2023-04-26T00:44:00;3.60;99.90
27567;DHT22;15006;48.584;9.186;2023-04-26T00:46:26;3.50;99.90
27567;DHT22;15006;48.584;9.186;2023-04-26T00:48:55;3.50;99.90
27567;DHT22;15006;48.584;9.186;2023-04-26T00:51:21;3.50;99.90
27567;DHT22;15006;48.584;9.186;2023-04-26T00:53:47;3.40;99.90
27567;DHT22;15006;48.584;9.186;2023-04-26T00:56:15;3.40;99.90
27567;DHT22;15006;48.584;9.186;2023-04-26T00:58:42;3.30;99.90
27567;DHT22;15006;48.584;9.186;2023-04-26T01:01:08;3.30;99.90
27567;DHT22;15006;48.584;9.186;2023-04-26T01:03:34;3.20;99.90
27567;DHT22;15006;48.584;9.186;2023-04-26T01:06:00;3.20;99.90
27567;DHT22;15006;48.584;9.186;2023-04-26T01:08:27;3.10;99.90
27567;DHT22;15006;48.584;9.186;2023-04-26T01:10:53;3.10;99.90
27567;DHT22;15006;48.584;9.186;2023-04-26T01:13:19;3.00;99.90
27567;DHT22;15006;48.584;9.186;2023-04-26T01:15:46;2.90;99.90
27567;DHT22;15006;48.584;9.186;2023-04-26T01:18:13;2.90;99.90
27567;DHT22;15006;48.584;9.186;2023-04-26T01:20:40;2.80;99.90
27567;DHT22;15006;48.584;9.186;2023-04-26T01:23:08;2.80;99.90
27567;DHT22;15006;48.584;9.186;2023-04-26T01:25:35;2.70;99.90
27567;DHT22;15006;48.584;9.186;2023-04-26T01:28:01;2.60;99.90
27567;DHT22;15006;48.584;9.186;2023-04-26T01:30:28;2.60;99.90
27567;DHT22;15006;48.584;9.186;2023-04-26T01:32:54;2.50;99.90
27567;DHT22;15006;48.584;9.186;2023-04-26T01:35:20;2.50;99.90
27567;DHT22;15006;48.584;9.186;2023-04-26T01:37:46;2.40;99.90
27567;DHT22;15006;48.584;9.186;2023-04-26T01:40:12;2.40;99.90
27567;DHT22;15006;48.584;9.186;2023-04-26T01:42:38;2.40;99.90
27567;DHT22;15006;48.584;9.186;2023-04-26T01:45:05;2.40;99.90
27567;DHT22;15006;48.584;9.186;2023-04-26T01:47:31;2.30;99.90
27567;DHT22;15006;48.584;9.186;2023-04-26T01:49:57;2.30;99.90
27567;DHT22;15006;48.584;9.186;2023-04-26T01:52:23;2.30;99.90
27567;DHT22;15006;48.584;9.186;2023-04-26T01:54:49;2.30;99.90
27567;DHT22;15006;48.584;9.186;2023-04-26T01:57:15;2.30;99.90
27567;DHT22;15006;48.584;9.186;2023-04-26T01:59:42;2.30;99.90
27567;DHT22;15006;48.584;9.186;2023-04-26T02:02:07;2.30;99.90
27567;DHT22;15006;48.584;9.186;2023-04-26T02:04:34;2.30;99.90
27567;DHT22;15006;48.584;9.186;2023-04-26T02:07:00;2.30;99.90
27567;DHT22;15006;48.584;9.186;2023-04-26T02:09:26;2.30;99.90
27567;DHT22;15006;48.584;9.186;2023-04-26T02:11:52;2.20;99.90
27567;DHT22;15006;48.584;9.186;2023-04-26T02:14:18;2.20;99.90
27567;DHT22;15006;48.584;9.186;2023-04-26T02:16:44;2.10;99.90
27567;DHT22;15006;48.584;9.186;2023-04-26T02:19:11;2.10;99.90
27567;DHT22;15006;48.584;9.186;2023-04-26T02:21:53;2.00;99.90
27567;DHT22;15006;48.584;9.186;2023-04-26T02:24:22;1.90;99.90
27567;DHT22;15006;48.584;9.186;2023-04-26T02:26:51;1.80;99.90
27567;DHT22;15006;48.584;9.186;2023-04-26T02:29:19;1.70;99.90
27567;DHT22;15006;48.584;9.186;2023-04-26T02:31:45;1.70;99.90
27567;DHT22;15006;48.584;9.186;2023-04-26T02:34:13;1.60;99.90
27567;DHT22;15006;48.584;9.186;2023-04-26T02:36:41;1.40;99.90
27567;DHT22;15006;48.584;9.186;2023-04-26T02:39:07;1.40;99.90
27567;DHT22;15006;48.584;9.186;2023-04-26T02:41:34;1.30;99.90
27567;DHT22;15006;48.584;9.186;2023-04-26T02:44:00;1.20;99.90
27567;DHT22;15006;48.584;9.186;2023-04-26T02:46:26;1.20;99.90
27567;DHT22;15006;48.584;9.186;2023-04-26T02:48:52;1.10;99.90
27567;DHT22;15006;48.584;9.186;2023-04-26T02:51:18;1.10;99.90
27567;DHT22;15006;48.584;9.186;2023-04-26T02:53:44;1.00;99.90
27567;DHT22;15006;48.584;9.186;2023-04-26T02:56:10;0.90;99.90
27567;DHT22;15006;48.584;9.186;2023-04-26T02:58:36;0.90;99.90
27567;DHT22;15006;48.584;9.186;2023-04-26T03:01:02;0.90;99.90
27567;DHT22;15006;48.584;9.186;2023-04-26T03:03:29;0.80;99.90
27567;DHT22;15006;48.584;9.186;2023-04-26T03:05:55;0.90;99.90
27567;DHT22;15006;48.584;9.186;2023-04-26T03:08:21;0.90;99.90
27567;DHT22;15006;48.584;9.186;2023-04-26T03:10:47;0.90;99.90
27567;DHT22;15006;48.584;9.186;2023-04-26T03:13:13;0.90;99.90
27567;DHT22;15006;48.584;9.186;2023-04-26T03:15:43;0.90;99.90
27567;DHT22;15006;48.584;9.186;2023-04-26T03:18:10;0.90;99.90
27567;DHT22;15006;48.584;9.186;2023-04-26T03:20:36;0.90;99.90
27567;DHT22;15006;48.584;9.186;2023-04-26T03:23:02;1.00;99.90
27567;DHT22;15006;48.584;9.186;2023-04-26T03:25:28;1.00;99.90
27567;DHT22;15006;48.584;9.186;2023-04-26T03:27:54;1.00;99.90
27567;DHT22;15006;48.584;9.186;2023-04-26T03:30:21;1.00;99.90
27567;DHT22;15006;48.584;9.186;2023-04-26T03:32:47;1.00;99.90
27567;DHT22;15006;48.584;9.186;2023-04-26T03:35:13;1.00;99.90
27567;DHT22;15006;48.584;9.186;2023-04-26T03:37:39;1.00;99.90
27567;DHT22;15006;48.584;9.186;2023-04-26T03:40:08;1.00;99.90
27567;DHT22;15006;48.584;9.186;2023-04-26T03:42:35;0.90;99.90
27567;DHT22;15006;48.584;9.186;2023-04-26T03:45:02;0.90;99.90
27567;DHT22;15006;48.584;9.186;2023-04-26T03:47:30;0.90;99.90
27567;DHT22;15006;48.584;9.186;2023-04-26T03:49:56;0.80;99.90
27567;DHT22;15006;48.584;9.186;2023-04-26T03:52:23;0.80;99.90
27567;DHT22;15006;48.584;9.186;2023-04-26T03:54:49;0.70;99.90
27567;DHT22;15006;48.584;9.186;2023-04-26T03:57:15;0.70;99.90
27567;DHT22;15006;48.584;9.186;2023-04-26T03:59:41;0.70;99.90
27567;DHT22;15006;48.584;9.186;2023-04-26T04:02:07;0.70;99.90
27567;DHT22;15006;48.584;9.186;2023-04-26T04:04:33;0.60;99.90
27567;DHT22;15006;48.584;9.186;2023-04-26T04:06:59;0.50;99.90
27567;DHT22;15006;48.584;9.186;2023-04-26T04:09:26;0.50;99.90
27567;DHT22;15006;48.584;9.186;2023-04-26T04:11:51;0.40;99.90
27567;DHT22;15006;48.584;9.186;2023-04-26T04:14:17;0.40;99.90
27567;DHT22;15006;48.584;9.186;2023-04-26T04:16:43;0.30;99.90
27567;DHT22;15006;48.584;9.186;2023-04-26T04:19:09;0.30;99.90
27567;DHT22;15006;48.584;9.186;2023-04-26T04:21:35;0.30;99.90
27567;DHT22;15006;48.584;9.186;2023-04-26T04:24:02;0.20;99.90
27567;DHT22;15006;48.584;9.186;2023-04-26T04:26:28;0.20;99.90
27567;DHT22;15006;48.584;9.186;2023-04-26T04:28:55;0.20;99.90
27567;DHT22;15006;48.584;9.186;2023-04-26T04:31:22;0.20;99.90
27567;DHT22;15006;48.584;9.186;2023-04-26T04:33:48;0.20;99.90
27567;DHT22;15006;48.584;9.186;2023-04-26T04:36:13;0.20;99.90
27567;DHT22;15006;48.584;9.186;2023-04-26T04:38:42;0.20;99.90
27567;DHT22;15006;48.584;9.186;2023-04-26T04:41:08;0.20;99.90
27567;DHT22;15006;48.584;9.186;2023-04-26T04:43:34;0.20;99.90
27567;DHT22;15006;48.584;9.186;2023-04-26T04:46:00;0.30;99.90
27567;DHT22;15006;48.584;9.186;2023-04-26T04:48:27;0.30;99.90
27567;DHT22;15006;48.584;9.186;2023-04-26T04:50:53;0.30;99.90
27567;DHT22;15006;48.584;9.186;2023-04-26T04:53:19;0.30;99.90
27567;DHT22;15006;48.584;9.186;2023-04-26T04:55:45;0.40;99.90
27567;DHT22;15006;48.584;9.186;2023-04-26T04:58:11;0.40;99.90
27567;DHT22;15006;48.584;9.186;2023-04-26T05:00:39;0.50;99.90
27567;DHT22;15006;48.584;9.186;2023-04-26T05:03:05;0.50;99.90
27567;DHT22;15006;48.584;9.186;2023-04-26T05:05:37;0.60;99.90
27567;DHT22;15006;48.584;9.186;2023-04-26T05:08:03;0.70;99.90
27567;DHT22;15006;48.584;9.186;2023-04-26T05:10:33;0.80;99.90
27567;DHT22;15006;48.584;9.186;2023-04-26T05:13:00;0.90;99.90
27567;DHT22;15006;48.584;9.186;2023-04-26T05:15:26;1.00;99.90
27567;DHT22;15006;48.584;9.186;2023-04-26T05:17:53;1.00;99.90
27567;DHT22;15006;48.584;9.186;2023-04-26T05:20:20;1.10;99.90
27567;DHT22;15006;48.584;9.186;2023-04-26T05:22:47;1.20;99.90
27567;DHT22;15006;48.584;9.186;2023-04-26T05:25:13;1.30;99.90
27567;DHT22;15006;48.584;9.186;2023-04-26T05:27:39;1.40;99.90
27567;DHT22;15006;48.584;9.186;2023-04-26T05:30:06;1.50;99.90
27567;DHT22;15006;48.584;9.186;2023-04-26T05:32:33;1.60;99.90
27567;DHT22;15006;48.584;9.186;2023-04-26T05:34:59;1.70;99.90
27567;DHT22;15006;48.584;9.186;2023-04-26T05:37:26;1.90;99.90
27567;DHT22;15006;48.584;9.186;2023-04-26T05:39:52;1.90;99.90
27567;DHT22;15006;48.584;9.186;2023-04-26T05:42:18;2.00;99.90
27567;DHT22;15006;48.584;9.186;2023-04-26T05:44:44;2.20;99.90
27567;DHT22;15006;48.584;9.186;2023-04-26T05:47:10;2.20;99.90
27567;DHT22;15006;48.584;9.186;2023-04-26T05:49:36;2.40;99.90
27567;DHT22;15006;48.584;9.186;2023-04-26T05:52:02;2.50;99.90
27567;DHT22;15006;48.584;9.186;2023-04-26T05:54:29;2.60;99.90
27567;DHT22;15006;48.584;9.186;2023-04-26T05:56:55;2.70;99.90
27567;DHT22;15006;48.584;9.186;2023-04-26T05:59:21;2.80;99.90
27567;DHT22;15006;48.584;9.186;2023-04-26T06:01:47;2.90;99.90
27567;DHT22;15006;48.584;9.186;2023-04-26T06:04:13;3.00;99.90
27567;DHT22;15006;48.584;9.186;2023-04-26T06:06:39;3.10;99.90
27567;DHT22;15006;48.584;9.186;2023-04-26T06:09:05;3.20;99.90
27567;DHT22;15006;48.584;9.186;2023-04-26T06:11:31;3.20;99.90
27567;DHT22;15006;48.584;9.186;2023-04-26T06:13:57;3.30;99.90
27567;DHT22;15006;48.584;9.186;2023-04-26T06:16:23;3.40;99.90
27567;DHT22;15006;48.584;9.186;2023-04-26T06:18:49;3.40;99.90
27567;DHT22;15006;48.584;9.186;2023-04-26T06:21:15;3.50;99.90
27567;DHT22;15006;48.584;9.186;2023-04-26T06:23:41;3.50;99.90
27567;DHT22;15006;48.584;9.186;2023-04-26T06:26:07;3.60;99.90
27567;DHT22;15006;48.584;9.186;2023-04-26T06:28:33;3.60;99.90
27567;DHT22;15006;48.584;9.186;2023-04-26T06:30:59;3.70;99.90
27567;DHT22;15006;48.584;9.186;2023-04-26T06:33:26;3.80;99.90
27567;DHT22;15006;48.584;9.186;2023-04-26T06:35:52;3.90;99.90
27567;DHT22;15006;48.584;9.186;2023-04-26T06:38:18;4.10;99.90
27567;DHT22;15006;48.584;9.186;2023-04-26T06:40:44;4.10;99.90
27567;DHT22;15006;48.584;9.186;2023-04-26T06:43:10;4.30;99.90
27567;DHT22;15006;48.584;9.186;2023-04-26T06:45:36;4.40;99.90
27567;DHT22;15006;48.584;9.186;2023-04-26T06:48:02;4.50;99.90
27567;DHT22;15006;48.584;9.186;2023-04-26T06:50:30;4.50;99.90
27567;DHT22;15006;48.584;9.186;2023-04-26T06:52:55;4.70;99.90
27567;DHT22;15006;48.584;9.186;2023-04-26T06:55:22;4.70;99.90
27567;DHT22;15006;48.584;9.186;2023-04-26T06:57:48;4.80;99.90
27567;DHT22;15006;48.584;9.186;2023-04-26T07:00:15;4.90;99.90
27567;DHT22;15006;48.584;9.186;2023-04-26T07:02:43;5.00;99.90
27567;DHT22;15006;48.584;9.186;2023-04-26T07:05:09;5.20;99.90
27567;DHT22;15006;48.584;9.186;2023-04-26T07:07:35;5.30;99.90
27567;DHT22;15006;48.584;9.186;2023-04-26T07:10:00;5.40;99.90
27567;DHT22;15006;48.584;9.186;2023-04-26T07:12:27;5.50;99.90
27567;DHT22;15006;48.584;9.186;2023-04-26T07:14:53;5.60;99.90
27567;DHT22;15006;48.584;9.186;2023-04-26T07:17:19;5.70;99.90
27567;DHT22;15006;48.584;9.186;2023-04-26T07:19:46;5.90;99.90
27567;DHT22;15006;48.584;9.186;2023-04-26T07:22:12;6.10;99.90
27567;DHT22;15006;48.584;9.186;2023-04-26T07:24:38;6.30;99.90
27567;DHT22;15006;48.584;9.186;2023-04-26T07:27:04;6.50;99.90
27567;DHT22;15006;48.584;9.186;2023-04-26T07:29:30;6.70;99.90
27567;DHT22;15006;48.584;9.186;2023-04-26T07:31:56;6.90;99.90
27567;DHT22;15006;48.584;9.186;2023-04-26T07:34:23;7.10;99.90
27567;DHT22;15006;48.584;9.186;2023-04-26T07:36:49;7.30;99.90
27567;DHT22;15006;48.584;9.186;2023-04-26T07:39:16;7.40;99.90
27567;DHT22;15006;48.584;9.186;2023-04-26T07:41:41;7.60;99.90
27567;DHT22;15006;48.584;9.186;2023-04-26T07:44:08;7.70;99.90
27567;DHT22;15006;48.584;9.186;2023-04-26T07:46:34;7.90;99.90
27567;DHT22;15006;48.584;9.186;2023-04-26T07:49:00;8.10;99.90
27567;DHT22;15006;48.584;9.186;2023-04-26T07:51:27;8.40;99.90
27567;DHT22;15006;48.584;9.186;2023-04-26T07:53:53;8.60;99.90
27567;DHT22;15006;48.584;9.186;2023-04-26T07:56:20;8.70;99.90
27567;DHT22;15006;48.584;9.186;2023-04-26T07:58:48;8.90;99.90
27567;DHT22;15006;48.584;9.186;2023-04-26T08:01:14;9.00;99.90
27567;DHT22;15006;48.584;9.186;2023-04-26T08:03:41;9.20;99.90
27567;DHT22;15006;48.584;9.186;2023-04-26T08:06:07;9.30;98.70
27567;DHT22;15006;48.584;9.186;2023-04-26T08:08:34;9.40;98.50
27567;DHT22;15006;48.584;9.186;2023-04-26T08:11:07;9.50;97.70
27567;DHT22;15006;48.584;9.186;2023-04-26T08:13:34;9.70;96.60
27567;DHT22;15006;48.584;9.186;2023-04-26T08:16:00;9.80;96.10
27567;DHT22;15006;48.584;9.186;2023-04-26T08:18:27;10.00;96.60
27567;DHT22;15006;48.584;9.186;2023-04-26T08:20:53;10.10;95.90
27567;DHT22;15006;48.584;9.186;2023-04-26T08:23:20;10.30;95.80
27567;DHT22;15006;48.584;9.186;2023-04-26T08:25:47;10.50;95.30
27567;DHT22;15006;48.584;9.186;2023-04-26T08:28:14;10.60;95.00
27567;DHT22;15006;48.584;9.186;2023-04-26T08:30:41;10.80;93.30
27567;DHT22;15006;48.584;9.186;2023-04-26T08:33:10;11.00;93.20
27567;DHT22;15006;48.584;9.186;2023-04-26T08:35:36;11.20;90.70
27567;DHT22;15006;48.584;9.186;2023-04-26T08:38:02;11.40;92.80
27567;DHT22;15006;48.584;9.186;2023-04-26T08:40:29;11.60;92.60
27567;DHT22;15006;48.584;9.186;2023-04-26T08:42:55;11.80;91.00
27567;DHT22;15006;48.584;9.186;2023-04-26T08:45:21;11.90;90.20
27567;DHT22;15006;48.584;9.186;2023-04-26T08:47:52;12.00;87.70
27567;DHT22;15006;48.584;9.186;2023-04-26T08:50:22;12.00;81.10
27567;DHT22;15006;48.584;9.186;2023-04-26T08:52:50;12.10;84.10
27567;DHT22;15006;48.584;9.186;2023-04-26T08:55:18;12.00;77.90
27567;DHT22;15006;48.584;9.186;2023-04-26T08:57:48;11.90;79.70
27567;DHT22;15006;48.584;9.186;2023-04-26T09:00:16;11.90;83.40
27567;DHT22;15006;48.584;9.186;2023-04-26T09:02:47;11.90;86.40
27567;DHT22;15006;48.584;9.186;2023-04-26T09:05:16;12.00;80.30
27567;DHT22;15006;48.584;9.186;2023-04-26T09:07:47;12.10;84.90
27567;DHT22;15006;48.584;9.186;2023-04-26T09:10:16;12.20;85.10
27567;DHT22;15006;48.584;9.186;2023-04-26T09:12:45;12.40;84.90
27567;DHT22;15006;48.584;9.186;2023-04-26T09:15:14;12.60;84.70
27567;DHT22;15006;48.584;9.186;2023-04-26T09:17:40;12.80;78.60
27567;DHT22;15006;48.584;9.186;2023-04-26T09:20:19;12.90;79.90
27567;DHT22;15006;48.584;9.186;2023-04-26T09:22:47;13.00;68.90
27567;DHT22;15006;48.584;9.186;2023-04-26T09:25:16;13.00;77.10
27567;DHT22;15006;48.584;9.186;2023-04-26T09:27:44;13.00;78.00
27567;DHT22;15006;48.584;9.186;2023-04-26T09:30:15;13.10;80.60
27567;DHT22;15006;48.584;9.186;2023-04-26T09:32:53;13.20;78.00
27567;DHT22;15006;48.584;9.186;2023-04-26T09:38:15;13.70;77.00
27567;DHT22;15006;48.584;9.186;2023-04-26T09:40:45;13.90;73.50
27567;DHT22;15006;48.584;9.186;2023-04-26T09:43:17;14.00;77.80
27567;DHT22;15006;48.584;9.186;2023-04-26T09:45:52;14.10;74.40
27567;DHT22;15006;48.584;9.186;2023-04-26T09:48:25;14.00;68.80
27567;DHT22;15006;48.584;9.186;2023-04-26T09:51:13;13.90;75.10
27567;DHT22;15006;48.584;9.186;2023-04-26T09:53:41;13.90;65.00
27567;DHT22;15006;48.584;9.186;2023-04-26T09:56:16;13.90;76.40
27567;DHT22;15006;48.584;9.186;2023-04-26T10:01:16;14.00;72.80
27567;DHT22;15006;48.584;9.186;2023-04-26T10:03:44;13.90;67.70
27567;DHT22;15006;48.584;9.186;2023-04-26T10:06:14;13.80;68.60
27567;DHT22;15006;48.584;9.186;2023-04-26T10:08:41;13.60;62.30
27567;DHT22;15006;48.584;9.186;2023-04-26T10:11:07;13.40;67.00
27567;DHT22;15006;48.584;9.186;2023-04-26T10:13:37;13.20;70.30
27567;DHT22;15006;48.584;9.186;2023-04-26T10:16:05;13.20;71.60
27567;DHT22;15006;48.584;9.186;2023-04-26T10:18:31;13.10;68.90
27567;DHT22;15006;48.584;9.186;2023-04-26T10:21:25;12.90;69.40
27567;DHT22;15006;48.584;9.186;2023-04-26T10:23:55;12.80;62.00
27567;DHT22;15006;48.584;9.186;2023-04-26T10:26:52;12.70;70.40
27567;DHT22;15006;48.584;9.186;2023-04-26T10:30:04;12.60;64.70
27567;DHT22;15006;48.584;9.186;2023-04-26T10:32:32;12.50;70.00
27567;DHT22;15006;48.584;9.186;2023-04-26T10:35:11;12.50;76.80
27567;DHT22;15006;48.584;9.186;2023-04-26T10:38:17;12.60;72.50
27567;DHT22;15006;48.584;9.186;2023-04-26T10:40:44;12.80;68.30
27567;DHT22;15006;48.584;9.186;2023-04-26T10:45:41;13.20;76.60
27567;DHT22;15006;48.584;9.186;2023-04-26T10:48:15;13.30;77.30
27567;DHT22;15006;48.584;9.186;2023-04-26T10:59:11;14.10;75.20
27567;DHT22;15006;48.584;9.186;2023-04-26T11:01:39;14.50;70.40
27567;DHT22;15006;48.584;9.186;2023-04-26T11:04:07;14.90;81.60
27567;DHT22;15006;48.584;9.186;2023-04-26T11:06:50;15.20;78.10
27567;DHT22;15006;48.584;9.186;2023-04-26T11:09:39;15.60;68.10
27567;DHT22;15006;48.584;9.186;2023-04-26T11:12:10;15.80;69.40
27567;DHT22;15006;48.584;9.186;2023-04-26T11:14:38;16.10;80.70
27567;DHT22;15006;48.584;9.186;2023-04-26T11:17:07;16.40;79.90
27567;DHT22;15006;48.584;9.186;2023-04-26T11:19:33;16.60;73.20
27567;DHT22;15006;48.584;9.186;2023-04-26T11:22:01;16.80;66.40
27567;DHT22;15006;48.584;9.186;2023-04-26T11:24:30;16.80;64.40
27567;DHT22;15006;48.584;9.186;2023-04-26T11:26:56;16.70;63.60
27567;DHT22;15006;48.584;9.186;2023-04-26T11:29:23;16.60;64.90
27567;DHT22;15006;48.584;9.186;2023-04-26T11:31:55;16.40;64.90
27567;DHT22;15006;48.584;9.186;2023-04-26T11:34:41;16.20;60.90
27567;DHT22;15006;48.584;9.186;2023-04-26T11:37:08;16.00;58.40
27567;DHT22;15006;48.584;9.186;2023-04-26T11:39:35;15.80;62.50
27567;DHT22;15006;48.584;9.186;2023-04-26T11:42:08;15.50;60.30
27567;DHT22;15006;48.584;9.186;2023-04-26T11:44:36;15.20;57.80
27567;DHT22;15006;48.584;9.186;2023-04-26T11:47:04;14.80;61.50
27567;DHT22;15006;48.584;9.186;2023-04-26T11:49:32;14.40;61.30
27567;DHT22;15006;48.584;9.186;2023-04-26T11:52:00;14.10;64.10
27567;DHT22;15006;48.584;9.186;2023-04-26T11:54:34;13.80;67.00
27567;DHT22;15006;48.584;9.186;2023-04-26T11:57:16;13.70;63.60
27567;DHT22;15006;48.584;9.186;2023-04-26T11:59:43;13.70;63.20
27567;DHT22;15006;48.584;9.186;2023-04-26T12:02:09;13.70;70.80
27567;DHT22;15006;48.584;9.186;2023-04-26T12:04:36;13.80;72.60
27567;DHT22;15006;48.584;9.186;2023-04-26T12:07:04;14.00;71.20
27567;DHT22;15006;48.584;9.186;2023-04-26T12:09:30;14.20;74.40
27567;DHT22;15006;48.584;9.186;2023-04-26T12:11:57;14.50;77.60
27567;DHT22;15006;48.584;9.186;2023-04-26T12:14:39;14.90;80.00
27567;DHT22;15006;48.584;9.186;2023-04-26T12:17:05;15.40;73.80
27567;DHT22;15006;48.584;9.186;2023-04-26T12:19:32;15.90;85.10
27567;DHT22;15006;48.584;9.186;2023-04-26T12:21:58;16.40;81.80
27567;DHT22;15006;48.584;9.186;2023-04-26T12:24:27;16.70;76.60
27567;DHT22;15006;48.584;9.186;2023-04-26T12:26:56;16.90;69.40
27567;DHT22;15006;48.584;9.186;2023-04-26T12:29:23;17.20;71.90
27567;DHT22;15006;48.584;9.186;2023-04-26T12:31:48;17.40;67.70
27567;DHT22;15006;48.584;9.186;2023-04-26T12:34:15;17.50;61.30
27567;DHT22;15006;48.584;9.186;2023-04-26T12:36:41;17.60;62.00
27567;DHT22;15006;48.584;9.186;2023-04-26T12:39:11;17.60;62.50
27567;DHT22;15006;48.584;9.186;2023-04-26T12:41:42;17.60;60.90
27567;DHT22;15006;48.584;9.186;2023-04-26T12:44:10;17.50;62.20
27567;DHT22;15006;48.584;9.186;2023-04-26T12:46:37;17.40;59.20
27567;DHT22;15006;48.584;9.186;2023-04-26T12:49:03;17.20;58.30
27567;DHT22;15006;48.584;9.186;2023-04-26T12:51:30;16.80;55.90
27567;DHT22;15006;48.584;9.186;2023-04-26T12:53:56;16.50;56.30
27567;DHT22;15006;48.584;9.186;2023-04-26T12:56:23;16.10;55.70
27567;DHT22;15006;48.584;9.186;2023-04-26T12:58:49;15.70;56.90
27567;DHT22;15006;48.584;9.186;2023-04-26T13:01:16;15.40;58.10
27567;DHT22;15006;48.584;9.186;2023-04-26T13:03:42;15.10;57.90
27567;DHT22;15006;48.584;9.186;2023-04-26T13:06:08;14.80;58.00
27567;DHT22;15006;48.584;9.186;2023-04-26T13:08:34;14.60;64.10
27567;DHT22;15006;48.584;9.186;2023-04-26T13:11:00;14.70;70.20
27567;DHT22;15006;48.584;9.186;2023-04-26T13:13:26;15.00;73.70
27567;DHT22;15006;48.584;9.186;2023-04-26T13:15:52;15.40;70.60
27567;DHT22;15006;48.584;9.186;2023-04-26T13:18:18;15.80;71.70
27567;DHT22;15006;48.584;9.186;2023-04-26T13:20:44;16.20;65.80
27567;DHT22;15006;48.584;9.186;2023-04-26T13:23:10;16.50;65.30
27567;DHT22;15006;48.584;9.186;2023-04-26T13:25:37;16.70;61.60
27567;DHT22;15006;48.584;9.186;2023-04-26T13:28:03;16.80;57.50
27567;DHT22;15006;48.584;9.186;2023-04-26T13:30:29;16.90;55.70
27567;DHT22;15006;48.584;9.186;2023-04-26T13:32:55;16.80;55.70
27567;DHT22;15006;48.584;9.186;2023-04-26T13:35:22;16.80;55.10
27567;DHT22;15006;48.584;9.186;2023-04-26T13:37:48;16.60;56.30
27567;DHT22;15006;48.584;9.186;2023-04-26T13:40:14;16.50;57.50
27567;DHT22;15006;48.584;9.186;2023-04-26T13:42:41;16.50;59.60
27567;DHT22;15006;48.584;9.186;2023-04-26T13:45:08;16.60;62.20
27567;DHT22;15006;48.584;9.186;2023-04-26T13:47:35;16.70;65.20
27567;DHT22;15006;48.584;9.186;2023-04-26T13:50:01;16.90;62.90
27567;DHT22;15006;48.584;9.186;2023-04-26T13:52:28;17.00;56.50
27567;DHT22;15006;48.584;9.186;2023-04-26T13:54:54;17.20;57.40
27567;DHT22;15006;48.584;9.186;2023-04-26T13:57:20;17.20;56.00
27567;DHT22;15006;48.584;9.186;2023-04-26T13:59:46;17.10;55.40
27567;DHT22;15006;48.584;9.186;2023-04-26T14:02:12;17.10;55.50
27567;DHT22;15006;48.584;9.186;2023-04-26T14:04:39;17.00;55.80
27567;DHT22;15006;48.584;9.186;2023-04-26T14:07:06;16.90;53.70
27567;DHT22;15006;48.584;9.186;2023-04-26T14:09:32;16.60;53.30
27567;DHT22;15006;48.584;9.186;2023-04-26T14:11:58;16.50;53.90
27567;DHT22;15006;48.584;9.186;2023-04-26T14:14:24;16.30;57.90
27567;DHT22;15006;48.584;9.186;2023-04-26T14:16:50;16.40;59.80
27567;DHT22;15006;48.584;9.186;2023-04-26T14:19:18;16.70;59.50
27567;DHT22;15006;48.584;9.186;2023-04-26T14:21:44;16.90;58.30
27567;DHT22;15006;48.584;9.186;2023-04-26T14:24:10;17.20;59.50
27567;DHT22;15006;48.584;9.186;2023-04-26T14:26:37;17.40;61.30
27567;DHT22;15006;48.584;9.186;2023-04-26T14:29:03;17.70;57.80
27567;DHT22;15006;48.584;9.186;2023-04-26T14:31:31;18.00;58.10
27567;DHT22;15006;48.584;9.186;2023-04-26T14:33:57;18.20;56.50
27567;DHT22;15006;48.584;9.186;2023-04-26T14:36:23;18.50;57.40
27567;DHT22;15006;48.584;9.186;2023-04-26T14:38:50;18.60;56.20
27567;DHT22;15006;48.584;9.186;2023-04-26T14:41:17;18.80;52.50
27567;DHT22;15006;48.584;9.186;2023-04-26T14:43:45;18.80;53.10
27567;DHT22;15006;48.584;9.186;2023-04-26T14:46:12;18.90;54.70
27567;DHT22;15006;48.584;9.186;2023-04-26T14:48:38;18.90;54.90
27567;DHT22;15006;48.584;9.186;2023-04-26T14:51:04;18.90;55.20
27567;DHT22;15006;48.584;9.186;2023-04-26T14:53:30;18.90;52.70
27567;DHT22;15006;48.584;9.186;2023-04-26T14:55:57;19.00;56.50
27567;DHT22;15006;48.584;9.186;2023-04-26T14:58:24;19.10;57.50
27567;DHT22;15006;48.584;9.186;2023-04-26T15:00:51;19.20;56.10
27567;DHT22;15006;48.584;9.186;2023-04-26T15:03:18;19.30;56.90
27567;DHT22;15006;48.584;9.186;2023-04-26T15:05:45;19.30;55.00
27567;DHT22;15006;48.584;9.186;2023-04-26T15:08:11;19.20;53.00
27567;DHT22;15006;48.584;9.186;2023-04-26T15:10:37;19.10;52.90
27567;DHT22;15006;48.584;9.186;2023-04-26T15:13:03;19.00;53.20
27567;DHT22;15006;48.584;9.186;2023-04-26T15:15:29;19.10;54.70
27567;DHT22;15006;48.584;9.186;2023-04-26T15:17:55;19.20;57.70
27567;DHT22;15006;48.584;9.186;2023-04-26T15:20:21;19.30;58.00
27567;DHT22;15006;48.584;9.186;2023-04-26T15:22:49;19.50;56.50
27567;DHT22;15006;48.584;9.186;2023-04-26T15:25:15;19.70;56.20
27567;DHT22;15006;48.584;9.186;2023-04-26T15:27:41;19.60;52.60
27567;DHT22;15006;48.584;9.186;2023-04-26T15:30:08;19.40;52.80
27567;DHT22;15006;48.584;9.186;2023-04-26T15:32:34;19.30;51.90
27567;DHT22;15006;48.584;9.186;2023-04-26T15:35:00;19.20;50.70
27567;DHT22;15006;48.584;9.186;2023-04-26T15:37:26;19.10;52.60
27567;DHT22;15006;48.584;9.186;2023-04-26T15:39:52;19.10;54.00
27567;DHT22;15006;48.584;9.186;2023-04-26T15:42:18;19.20;55.90
27567;DHT22;15006;48.584;9.186;2023-04-26T15:44:44;19.30;55.70
27567;DHT22;15006;48.584;9.186;2023-04-26T15:47:10;19.20;54.50
27567;DHT22;15006;48.584;9.186;2023-04-26T15:49:36;19.30;55.60
27567;DHT22;15006;48.584;9.186;2023-04-26T15:52:02;19.40;56.30
27567;DHT22;15006;48.584;9.186;2023-04-26T15:54:28;19.50;56.20
27567;DHT22;15006;48.584;9.186;2023-04-26T15:56:54;19.70;55.40
27567;DHT22;15006;48.584;9.186;2023-04-26T15:59:20;19.60;53.00